sensor_id;sensor_type;location;lat;lon;timestamp;pressure;altitude;pressure_sealevel;temperature;humidity
63321;BME280;49449;48.800;9.534;2023-06-10T00:01:09;98170.81;;;19.10;32.92
63321;BME280;49449;48.800;9.534;2023-06-10T00:03:37;98162.28;;;19.08;32.79
63321;BME280;49449;48.800;9.534;2023-06-10T00:06:07;98172.78;;;19.04;32.84
63321;BME280;49449;48.800;9.534;2023-06-10T00:08:34;98169.81;;;19.06;32.96
63321;BME280;49449;48.800;9.534;2023-06-10T00:11:04;98169.81;;;19.06;32.67
63321;BME280;49449;48.800;9.534;2023-06-10T00:13:31;98166.34;;;19.05;32.78
63321;BME280;49449;48.800;9.534;2023-06-10T00:15:59;98169.31;;;19.04;33.11
63321;BME280;49449;48.800;9.534;2023-06-10T00:18:27;98172.16;;;18.94;33.07
63321;BME280;49449;48.800;9.534;2023-06-10T00:20:57;98168.72;;;18.88;33.48
63321;BME280;49449;48.800;9.534;2023-06-10T00:23:32;98170.56;;;18.73;33.85
63321;BME280;49449;48.800;9.534;2023-06-10T00:26:04;98176.84;;;18.64;33.78
63321;BME280;49449;48.800;9.534;2023-06-10T00:28:32;98161.88;;;18.63;33.62
63321;BME280;49449;48.800;9.534;2023-06-10T00:30:59;98165.13;;;18.60;33.61
63321;BME280;49449;48.800;9.534;2023-06-10T00:33:27;98161.97;;;18.58;33.74
63321;BME280;49449;48.800;9.534;2023-06-10T00:35:55;98168.03;;;18.63;33.71
63321;BME280;49449;48.800;9.534;2023-06-10T00:38:23;98162.38;;;18.65;33.84
63321;BME280;49449;48.800;9.534;2023-06-10T00:40:52;98164.50;;;18.68;33.93
63321;BME280;49449;48.800;9.534;2023-06-10T00:43:20;98159.56;;;18.56;33.87
63321;BME280;49449;48.800;9.534;2023-06-10T00:45:48;98169.47;;;18.56;34.00
63321;BME280;49449;48.800;9.534;2023-06-10T00:48:17;98171.63;;;18.53;34.14
63321;BME280;49449;48.800;9.534;2023-06-10T00:50:45;98166.38;;;18.48;34.22
63321;BME280;49449;48.800;9.534;2023-06-10T00:53:13;98160.22;;;18.48;34.25
63321;BME280;49449;48.800;9.534;2023-06-10T00:55:41;98161.31;;;18.47;34.39
63321;BME280;49449;48.800;9.534;2023-06-10T00:58:10;98154.41;;;18.41;34.20
63321;BME280;49449;48.800;9.534;2023-06-10T01:00:39;98155.75;;;18.43;34.16
63321;BME280;49449;48.800;9.534;2023-06-10T01:03:07;98162.16;;;18.42;34.44
63321;BME280;49449;48.800;9.534;2023-06-10T01:05:35;98154.13;;;18.42;34.13
63321;BME280;49449;48.800;9.534;2023-06-10T01:08:09;98160.28;;;18.43;34.24
63321;BME280;49449;48.800;9.534;2023-06-10T01:10:41;98161.88;;;18.44;34.42
63321;BME280;49449;48.800;9.534;2023-06-10T01:13:11;98160.41;;;18.32;34.55
63321;BME280;49449;48.800;9.534;2023-06-10T01:15:39;98162.63;;;18.25;34.59
63321;BME280;49449;48.800;9.534;2023-06-10T01:18:08;98167.19;;;18.25;34.99
63321;BME280;49449;48.800;9.534;2023-06-10T01:20:38;98168.81;;;18.26;34.47
63321;BME280;49449;48.800;9.534;2023-06-10T01:23:10;98161.88;;;18.20;34.68
63321;BME280;49449;48.800;9.534;2023-06-10T01:25:39;98163.84;;;18.14;34.85
63321;BME280;49449;48.800;9.534;2023-06-10T01:28:14;98165.50;;;18.10;34.92
63321;BME280;49449;48.800;9.534;2023-06-10T01:30:47;98166.06;;;18.07;34.94
63321;BME280;49449;48.800;9.534;2023-06-10T01:33:17;98160.03;;;17.96;35.23
63321;BME280;49449;48.800;9.534;2023-06-10T01:35:47;98158.56;;;17.85;35.43
63321;BME280;49449;48.800;9.534;2023-06-10T01:38:18;98158.06;;;17.83;35.48
63321;BME280;49449;48.800;9.534;2023-06-10T01:40:48;98158.56;;;17.85;35.32
63321;BME280;49449;48.800;9.534;2023-06-10T01:43:16;98147.59;;;17.86;35.36
63321;BME280;49449;48.800;9.534;2023-06-10T01:45:43;98162.28;;;17.89;35.09
63321;BME280;49449;48.800;9.534;2023-06-10T01:48:11;98167.09;;;17.87;35.36
63321;BME280;49449;48.800;9.534;2023-06-10T01:50:39;98153.75;;;17.87;35.35
63321;BME280;49449;48.800;9.534;2023-06-10T01:53:07;98154.53;;;17.87;35.46
63321;BME280;49449;48.800;9.534;2023-06-10T01:55:36;98160.66;;;17.88;35.42
63321;BME280;49449;48.800;9.534;2023-06-10T01:58:04;98158.50;;;17.90;35.08
63321;BME280;49449;48.800;9.534;2023-06-10T02:00:31;98162.00;;;17.90;35.21
63321;BME280;49449;48.800;9.534;2023-06-10T02:03:00;98166.28;;;17.86;35.32
63321;BME280;49449;48.800;9.534;2023-06-10T02:05:27;98164.22;;;17.83;35.64
63321;BME280;49449;48.800;9.534;2023-06-10T02:07:55;98164.50;;;17.82;35.62
63321;BME280;49449;48.800;9.534;2023-06-10T02:10:23;98167.66;;;17.84;35.41
63321;BME280;49449;48.800;9.534;2023-06-10T02:12:52;98166.66;;;17.79;35.81
63321;BME280;49449;48.800;9.534;2023-06-10T02:15:20;98167.22;;;17.76;35.74
63321;BME280;49449;48.800;9.534;2023-06-10T02:17:48;98172.56;;;17.76;35.60
63321;BME280;49449;48.800;9.534;2023-06-10T02:20:17;98166.72;;;17.74;35.73
63321;BME280;49449;48.800;9.534;2023-06-10T02:22:45;98169.94;;;17.71;35.85
63321;BME280;49449;48.800;9.534;2023-06-10T02:25:13;98167.53;;;17.70;35.89
63321;BME280;49449;48.800;9.534;2023-06-10T02:27:41;98168.63;;;17.69;35.86
63321;BME280;49449;48.800;9.534;2023-06-10T02:30:11;98166.25;;;17.67;35.73
63321;BME280;49449;48.800;9.534;2023-06-10T02:32:40;98168.38;;;17.65;35.72
63321;BME280;49449;48.800;9.534;2023-06-10T02:35:08;98169.75;;;17.63;35.75
63321;BME280;49449;48.800;9.534;2023-06-10T02:37:38;98172.16;;;17.64;35.84
63321;BME280;49449;48.800;9.534;2023-06-10T02:40:07;98170.03;;;17.61;35.64
63321;BME280;49449;48.800;9.534;2023-06-10T02:42:35;98171.19;;;17.55;35.81
63321;BME280;49449;48.800;9.534;2023-06-10T02:45:04;98172.25;;;17.54;35.78
63321;BME280;49449;48.800;9.534;2023-06-10T02:47:37;98186.38;;;17.54;35.97
63321;BME280;49449;48.800;9.534;2023-06-10T02:50:05;98189.31;;;17.53;35.90
63321;BME280;49449;48.800;9.534;2023-06-10T02:52:33;98185.06;;;17.52;35.84
63321;BME280;49449;48.800;9.534;2023-06-10T02:55:01;98178.94;;;17.51;35.81
63321;BME280;49449;48.800;9.534;2023-06-10T02:57:29;98183.47;;;17.51;35.86
63321;BME280;49449;48.800;9.534;2023-06-10T02:59:57;98177.59;;;17.49;35.96
63321;BME280;49449;48.800;9.534;2023-06-10T03:02:25;98183.22;;;17.47;35.89
63321;BME280;49449;48.800;9.534;2023-06-10T03:04:56;98187.28;;;17.45;35.98
63321;BME280;49449;48.800;9.534;2023-06-10T03:07:24;98181.41;;;17.42;36.00
63321;BME280;49449;48.800;9.534;2023-06-10T03:09:52;98185.16;;;17.41;36.09
63321;BME280;49449;48.800;9.534;2023-06-10T03:12:20;98193.94;;;17.42;35.99
63321;BME280;49449;48.800;9.534;2023-06-10T03:14:48;98190.78;;;17.40;36.22
63321;BME280;49449;48.800;9.534;2023-06-10T03:17:15;98194.00;;;17.37;36.11
63321;BME280;49449;48.800;9.534;2023-06-10T03:19:43;98194.59;;;17.34;36.20
63321;BME280;49449;48.800;9.534;2023-06-10T03:22:14;98194.03;;;17.32;36.15
63321;BME280;49449;48.800;9.534;2023-06-10T03:24:42;98195.13;;;17.31;36.16
63321;BME280;49449;48.800;9.534;2023-06-10T03:27:12;98194.63;;;17.29;36.08
63321;BME280;49449;48.800;9.534;2023-06-10T03:29:41;98204.25;;;17.25;36.25
63321;BME280;49449;48.800;9.534;2023-06-10T03:32:09;98198.91;;;17.25;36.31
63321;BME280;49449;48.800;9.534;2023-06-10T03:34:37;98207.50;;;17.21;36.31
63321;BME280;49449;48.800;9.534;2023-06-10T03:37:06;98212.84;;;17.21;36.30
63321;BME280;49449;48.800;9.534;2023-06-10T03:39:35;98208.53;;;17.26;36.33
63321;BME280;49449;48.800;9.534;2023-06-10T03:42:03;98210.13;;;17.27;36.34
63321;BME280;49449;48.800;9.534;2023-06-10T03:44:31;98218.38;;;17.30;36.24
63321;BME280;49449;48.800;9.534;2023-06-10T03:47:00;98208.47;;;17.31;36.46
63321;BME280;49449;48.800;9.534;2023-06-10T03:49:28;98214.06;;;17.34;36.39
63321;BME280;49449;48.800;9.534;2023-06-10T03:51:56;98210.59;;;17.34;36.23
63321;BME280;49449;48.800;9.534;2023-06-10T03:54:23;98208.44;;;17.36;36.33
63321;BME280;49449;48.800;9.534;2023-06-10T03:56:53;98216.19;;;17.37;36.47
63321;BME280;49449;48.800;9.534;2023-06-10T03:59:21;98221.47;;;17.42;36.20
63321;BME280;49449;48.800;9.534;2023-06-10T04:01:49;98218.72;;;17.48;36.16
63321;BME280;49449;48.800;9.534;2023-06-10T04:04:17;98217.91;;;17.52;36.21
63321;BME280;49449;48.800;9.534;2023-06-10T04:06:44;98228.28;;;17.59;36.15
63321;BME280;49449;48.800;9.534;2023-06-10T04:09:12;98222.63;;;17.66;36.07
63321;BME280;49449;48.800;9.534;2023-06-10T04:11:40;98224.66;;;17.74;36.14
63321;BME280;49449;48.800;9.534;2023-06-10T04:14:10;98227.00;;;17.81;35.82
63321;BME280;49449;48.800;9.534;2023-06-10T04:16:38;98225.59;;;17.88;35.78
63321;BME280;49449;48.800;9.534;2023-06-10T04:19:07;98233.78;;;17.97;35.40
63321;BME280;49449;48.800;9.534;2023-06-10T04:21:35;98231.56;;;18.04;35.78
63321;BME280;49449;48.800;9.534;2023-06-10T04:24:03;98230.44;;;18.10;35.40
63321;BME280;49449;48.800;9.534;2023-06-10T04:26:31;98231.97;;;18.16;35.23
63321;BME280;49449;48.800;9.534;2023-06-10T04:29:00;98234.56;;;18.22;35.57
63321;BME280;49449;48.800;9.534;2023-06-10T04:31:29;98233.47;;;18.28;35.39
63321;BME280;49449;48.800;9.534;2023-06-10T04:33:57;98239.28;;;18.35;35.12
63321;BME280;49449;48.800;9.534;2023-06-10T04:36:24;98242.38;;;18.42;34.96
63321;BME280;49449;48.800;9.534;2023-06-10T04:38:52;98239.38;;;18.49;34.92
63321;BME280;49449;48.800;9.534;2023-06-10T04:41:20;98243.78;;;18.59;34.76
63321;BME280;49449;48.800;9.534;2023-06-10T04:43:48;98245.38;;;18.60;34.75
63321;BME280;49449;48.800;9.534;2023-06-10T04:46:16;98247.72;;;18.66;34.64
63321;BME280;49449;48.800;9.534;2023-06-10T04:48:45;98242.22;;;18.77;34.57
63321;BME280;49449;48.800;9.534;2023-06-10T04:51:14;98246.63;;;18.86;34.22
63321;BME280;49449;48.800;9.534;2023-06-10T04:53:41;98243.34;;;18.95;34.09
63321;BME280;49449;48.800;9.534;2023-06-10T04:56:09;98249.34;;;19.05;34.20
63321;BME280;49449;48.800;9.534;2023-06-10T04:58:37;98242.59;;;19.08;33.94
63321;BME280;49449;48.800;9.534;2023-06-10T05:01:05;98253.94;;;19.19;33.98
63321;BME280;49449;48.800;9.534;2023-06-10T05:03:33;98252.50;;;19.26;34.20
63321;BME280;49449;48.800;9.534;2023-06-10T05:06:02;98257.78;;;19.32;33.74
63321;BME280;49449;48.800;9.534;2023-06-10T05:08:30;98252.34;;;19.37;33.96
63321;BME280;49449;48.800;9.534;2023-06-10T05:10:57;98249.88;;;19.40;34.25
63321;BME280;49449;48.800;9.534;2023-06-10T05:13:25;98250.28;;;19.47;33.91
63321;BME280;49449;48.800;9.534;2023-06-10T05:15:53;98252.66;;;19.49;33.79
63321;BME280;49449;48.800;9.534;2023-06-10T05:18:21;98254.03;;;19.46;34.36
63321;BME280;49449;48.800;9.534;2023-06-10T05:20:49;98249.88;;;19.54;33.72
63321;BME280;49449;48.800;9.534;2023-06-10T05:23:18;98249.50;;;19.61;33.81
63321;BME280;49449;48.800;9.534;2023-06-10T05:25:46;98252.84;;;19.72;33.82
63321;BME280;49449;48.800;9.534;2023-06-10T05:28:14;98248.41;;;19.81;33.87
63321;BME280;49449;48.800;9.534;2023-06-10T05:30:43;98246.31;;;19.92;33.56
63321;BME280;49449;48.800;9.534;2023-06-10T05:33:11;98252.88;;;19.99;33.22
63321;BME280;49449;48.800;9.534;2023-06-10T05:35:39;98245.44;;;20.10;33.32
63321;BME280;49449;48.800;9.534;2023-06-10T05:38:07;98246.94;;;20.16;33.33
63321;BME280;49449;48.800;9.534;2023-06-10T05:40:36;98245.56;;;20.33;33.26
63321;BME280;49449;48.800;9.534;2023-06-10T05:43:04;98243.66;;;20.47;32.99
63321;BME280;49449;48.800;9.534;2023-06-10T05:45:31;98245.84;;;20.59;33.35
63321;BME280;49449;48.800;9.534;2023-06-10T05:48:00;98247.78;;;20.67;33.41
63321;BME280;49449;48.800;9.534;2023-06-10T05:50:27;98248.97;;;20.75;33.41
63321;BME280;49449;48.800;9.534;2023-06-10T05:52:55;98258.19;;;20.83;33.13
63321;BME280;49449;48.800;9.534;2023-06-10T05:55:24;98256.41;;;20.92;33.32
63321;BME280;49449;48.800;9.534;2023-06-10T05:57:59;98258.97;;;20.97;33.20
63321;BME280;49449;48.800;9.534;2023-06-10T06:00:27;98251.69;;;21.11;32.61
63321;BME280;49449;48.800;9.534;2023-06-10T06:02:55;98260.91;;;21.19;32.65
63321;BME280;49449;48.800;9.534;2023-06-10T06:05:23;98253.50;;;21.25;32.66
63321;BME280;49449;48.800;9.534;2023-06-10T06:07:51;98255.94;;;21.35;32.54
63321;BME280;49449;48.800;9.534;2023-06-10T06:10:19;98261.25;;;21.49;32.45
63321;BME280;49449;48.800;9.534;2023-06-10T06:12:47;98261.03;;;21.59;32.59
63321;BME280;49449;48.800;9.534;2023-06-10T06:15:16;98258.25;;;21.73;32.18
63321;BME280;49449;48.800;9.534;2023-06-10T06:17:43;98251.53;;;21.84;32.13
63321;BME280;49449;48.800;9.534;2023-06-10T06:20:12;98255.94;;;21.89;32.12
63321;BME280;49449;48.800;9.534;2023-06-10T06:22:39;98261.38;;;21.98;31.83
63321;BME280;49449;48.800;9.534;2023-06-10T06:25:07;98251.31;;;22.12;31.46
63321;BME280;49449;48.800;9.534;2023-06-10T06:27:35;98257.53;;;22.21;31.15
63321;BME280;49449;48.800;9.534;2023-06-10T06:30:04;98256.94;;;22.33;31.90
63321;BME280;49449;48.800;9.534;2023-06-10T06:32:33;98257.91;;;22.37;31.52
63321;BME280;49449;48.800;9.534;2023-06-10T06:35:01;98260.00;;;22.49;31.48
63321;BME280;49449;48.800;9.534;2023-06-10T06:37:29;98260.63;;;22.55;30.97
63321;BME280;49449;48.800;9.534;2023-06-10T06:39:57;98257.31;;;22.66;30.86
63321;BME280;49449;48.800;9.534;2023-06-10T06:42:27;98265.59;;;22.79;31.13
63321;BME280;49449;48.800;9.534;2023-06-10T06:44:54;98262.75;;;22.84;30.89
63321;BME280;49449;48.800;9.534;2023-06-10T06:47:22;98266.56;;;22.83;30.59
63321;BME280;49449;48.800;9.534;2023-06-10T06:49:52;98260.22;;;22.87;30.48
63321;BME280;49449;48.800;9.534;2023-06-10T06:52:19;98265.59;;;22.96;30.16
63321;BME280;49449;48.800;9.534;2023-06-10T06:54:48;98267.66;;;23.08;30.40
63321;BME280;49449;48.800;9.534;2023-06-10T06:57:16;98262.28;;;23.17;30.22
63321;BME280;49449;48.800;9.534;2023-06-10T06:59:44;98260.38;;;23.35;29.83
63321;BME280;49449;48.800;9.534;2023-06-10T07:02:12;98254.66;;;23.54;30.07
63321;BME280;49449;48.800;9.534;2023-06-10T07:04:39;98265.88;;;23.65;29.97
63321;BME280;49449;48.800;9.534;2023-06-10T07:07:09;98259.81;;;23.85;29.51
63321;BME280;49449;48.800;9.534;2023-06-10T07:09:37;98259.31;;;23.83;29.23
63321;BME280;49449;48.800;9.534;2023-06-10T07:12:06;98264.06;;;23.95;28.71
63321;BME280;49449;48.800;9.534;2023-06-10T07:14:34;98260.91;;;23.93;28.73
63321;BME280;49449;48.800;9.534;2023-06-10T07:17:02;98258.00;;;24.07;29.51
63321;BME280;49449;48.800;9.534;2023-06-10T07:19:30;98259.81;;;24.24;29.36
63321;BME280;49449;48.800;9.534;2023-06-10T07:21:57;98264.38;;;24.32;28.75
63321;BME280;49449;48.800;9.534;2023-06-10T07:24:27;98262.31;;;24.29;28.48
63321;BME280;49449;48.800;9.534;2023-06-10T07:26:54;98271.44;;;24.15;28.49
63321;BME280;49449;48.800;9.534;2023-06-10T07:29:22;98264.13;;;24.16;28.00
63321;BME280;49449;48.800;9.534;2023-06-10T07:31:50;98263.84;;;24.09;27.79
63321;BME280;49449;48.800;9.534;2023-06-10T07:34:17;98265.41;;;24.18;27.90
63321;BME280;49449;48.800;9.534;2023-06-10T07:36:45;98263.31;;;24.24;27.38
63321;BME280;49449;48.800;9.534;2023-06-10T07:39:13;98262.28;;;24.37;27.44
63321;BME280;49449;48.800;9.534;2023-06-10T07:41:42;98258.94;;;24.41;27.88
63321;BME280;49449;48.800;9.534;2023-06-10T07:44:10;98261.84;;;24.27;27.90
63321;BME280;49449;48.800;9.534;2023-06-10T07:46:37;98260.81;;;24.49;27.54
63321;BME280;49449;48.800;9.534;2023-06-10T07:49:05;98254.09;;;24.55;27.75
63321;BME280;49449;48.800;9.534;2023-06-10T07:51:33;98258.66;;;24.63;27.33
63321;BME280;49449;48.800;9.534;2023-06-10T07:54:01;98256.66;;;24.51;27.14
63321;BME280;49449;48.800;9.534;2023-06-10T07:56:29;98252.13;;;24.64;27.15
63321;BME280;49449;48.800;9.534;2023-06-10T07:58:59;98249.72;;;24.71;27.14
63321;BME280;49449;48.800;9.534;2023-06-10T08:01:27;98253.31;;;24.54;27.31
63321;BME280;49449;48.800;9.534;2023-06-10T08:03:56;98261.69;;;24.62;27.23
63321;BME280;49449;48.800;9.534;2023-06-10T08:06:24;98254.13;;;24.76;27.40
63321;BME280;49449;48.800;9.534;2023-06-10T08:08:52;98252.94;;;24.86;27.24
63321;BME280;49449;48.800;9.534;2023-06-10T08:11:19;98256.41;;;24.35;27.38
63321;BME280;49449;48.800;9.534;2023-06-10T08:13:47;98250.44;;;24.60;26.96
63321;BME280;49449;48.800;9.534;2023-06-10T08:16:16;98241.25;;;24.73;26.87
63321;BME280;49449;48.800;9.534;2023-06-10T08:18:44;98247.53;;;24.86;26.80
63321;BME280;49449;48.800;9.534;2023-06-10T08:21:12;98230.56;;;24.98;27.12
63321;BME280;49449;48.800;9.534;2023-06-10T08:23:40;98243.75;;;25.20;27.26
63321;BME280;49449;48.800;9.534;2023-06-10T08:26:08;98234.59;;;25.34;26.57
63321;BME280;49449;48.800;9.534;2023-06-10T08:28:35;98232.81;;;25.50;26.70
63321;BME280;49449;48.800;9.534;2023-06-10T08:31:03;98228.13;;;25.59;26.49
63321;BME280;49449;48.800;9.534;2023-06-10T08:33:32;98233.72;;;25.54;26.30
63321;BME280;49449;48.800;9.534;2023-06-10T08:36:00;98227.03;;;25.39;26.49
63321;BME280;49449;48.800;9.534;2023-06-10T08:38:28;98220.88;;;25.51;26.09
63321;BME280;49449;48.800;9.534;2023-06-10T08:40:59;98230.97;;;25.75;26.23
63321;BME280;49449;48.800;9.534;2023-06-10T08:43:32;98239.53;;;25.90;25.41
63321;BME280;49449;48.800;9.534;2023-06-10T08:46:01;98232.69;;;26.04;26.04
63321;BME280;49449;48.800;9.534;2023-06-10T08:48:31;98226.72;;;26.11;25.80
63321;BME280;49449;48.800;9.534;2023-06-10T08:51:04;98239.91;;;26.00;25.59
63321;BME280;49449;48.800;9.534;2023-06-10T08:53:33;98242.47;;;25.72;25.82
63321;BME280;49449;48.800;9.534;2023-06-10T08:56:05;98242.34;;;25.93;25.50
63321;BME280;49449;48.800;9.534;2023-06-10T08:58:33;98234.59;;;26.04;26.16
63321;BME280;49449;48.800;9.534;2023-06-10T09:01:07;98236.97;;;25.81;25.79
63321;BME280;49449;48.800;9.534;2023-06-10T09:03:37;98234.00;;;25.86;25.97
63321;BME280;49449;48.800;9.534;2023-06-10T09:06:05;98240.97;;;25.62;25.92
63321;BME280;49449;48.800;9.534;2023-06-10T09:08:33;98231.06;;;25.66;25.70
63321;BME280;49449;48.800;9.534;2023-06-10T09:11:02;98225.78;;;25.82;25.95
63321;BME280;49449;48.800;9.534;2023-06-10T09:13:30;98228.72;;;25.90;25.74
63321;BME280;49449;48.800;9.534;2023-06-10T09:15:57;98218.25;;;26.00;25.38
63321;BME280;49449;48.800;9.534;2023-06-10T09:18:28;98227.59;;;26.03;25.07
63321;BME280;49449;48.800;9.534;2023-06-10T09:20:57;98224.78;;;25.99;24.83
63321;BME280;49449;48.800;9.534;2023-06-10T09:23:25;98222.63;;;26.05;24.60
63321;BME280;49449;48.800;9.534;2023-06-10T09:25:57;98226.94;;;25.94;24.54
63321;BME280;49449;48.800;9.534;2023-06-10T09:28:25;98225.91;;;25.98;24.31
63321;BME280;49449;48.800;9.534;2023-06-10T09:31:02;98221.44;;;26.15;24.35
63321;BME280;49449;48.800;9.534;2023-06-10T09:33:30;98226.81;;;26.02;24.45
63321;BME280;49449;48.800;9.534;2023-06-10T09:36:01;98226.38;;;26.00;24.09
63321;BME280;49449;48.800;9.534;2023-06-10T09:38:30;98226.38;;;26.00;24.65
63321;BME280;49449;48.800;9.534;2023-06-10T09:40:58;98212.38;;;25.98;24.54
63321;BME280;49449;48.800;9.534;2023-06-10T09:43:42;98219.25;;;25.96;24.04
63321;BME280;49449;48.800;9.534;2023-06-10T09:46:17;98214.88;;;26.16;24.12
63321;BME280;49449;48.800;9.534;2023-06-10T09:48:45;98223.44;;;26.18;24.26
63321;BME280;49449;48.800;9.534;2023-06-10T09:51:16;98227.63;;;26.15;23.94
63321;BME280;49449;48.800;9.534;2023-06-10T09:53:48;98212.84;;;26.13;23.92
63321;BME280;49449;48.800;9.534;2023-06-10T09:56:16;98218.03;;;25.81;24.56
63321;BME280;49449;48.800;9.534;2023-06-10T09:58:44;98229.31;;;25.95;25.01
63321;BME280;49449;48.800;9.534;2023-06-10T10:01:14;98202.47;;;26.27;24.30
63321;BME280;49449;48.800;9.534;2023-06-10T10:03:45;98211.47;;;26.31;24.17
63321;BME280;49449;48.800;9.534;2023-06-10T10:06:17;98208.31;;;26.41;23.43
63321;BME280;49449;48.800;9.534;2023-06-10T10:08:46;98201.03;;;26.70;23.19
63321;BME280;49449;48.800;9.534;2023-06-10T10:11:16;98196.41;;;26.71;23.34
63321;BME280;49449;48.800;9.534;2023-06-10T10:13:45;98200.78;;;26.75;23.48
63321;BME280;49449;48.800;9.534;2023-06-10T10:16:18;98204.19;;;26.72;23.12
63321;BME280;49449;48.800;9.534;2023-06-10T10:18:51;98203.22;;;26.93;23.25
63321;BME280;49449;48.800;9.534;2023-06-10T10:21:24;98197.69;;;26.49;22.76
63321;BME280;49449;48.800;9.534;2023-06-10T10:24:01;98190.78;;;26.51;23.39
63321;BME280;49449;48.800;9.534;2023-06-10T10:26:29;98197.66;;;26.61;22.78
63321;BME280;49449;48.800;9.534;2023-06-10T10:29:05;98191.97;;;26.78;22.85
63321;BME280;49449;48.800;9.534;2023-06-10T10:31:35;98197.44;;;26.54;23.34
63321;BME280;49449;48.800;9.534;2023-06-10T10:34:06;98200.06;;;26.50;23.37
63321;BME280;49449;48.800;9.534;2023-06-10T10:36:37;98198.31;;;26.58;22.64
63321;BME280;49449;48.800;9.534;2023-06-10T10:39:05;98196.56;;;26.50;23.28
63321;BME280;49449;48.800;9.534;2023-06-10T10:41:36;98197.44;;;26.54;23.57
63321;BME280;49449;48.800;9.534;2023-06-10T10:44:06;98191.44;;;26.73;23.00
63321;BME280;49449;48.800;9.534;2023-06-10T10:46:42;98189.41;;;26.70;22.92
63321;BME280;49449;48.800;9.534;2023-06-10T10:49:12;98190.56;;;26.44;23.22
63321;BME280;49449;48.800;9.534;2023-06-10T10:51:55;98186.72;;;26.57;23.37
63321;BME280;49449;48.800;9.534;2023-06-10T10:54:31;98178.69;;;26.61;23.07
63321;BME280;49449;48.800;9.534;2023-06-10T10:57:16;98180.97;;;26.59;23.37
63321;BME280;49449;48.800;9.534;2023-06-10T10:59:50;98183.84;;;26.78;23.12
63321;BME280;49449;48.800;9.534;2023-06-10T11:02:32;98178.41;;;26.38;23.11
63321;BME280;49449;48.800;9.534;2023-06-10T11:05:02;98177.06;;;26.32;23.20
63321;BME280;49449;48.800;9.534;2023-06-10T11:07:33;98176.41;;;26.75;23.58
63321;BME280;49449;48.800;9.534;2023-06-10T11:10:02;98181.88;;;26.91;23.05
63321;BME280;49449;48.800;9.534;2023-06-10T11:12:51;98165.28;;;26.93;22.97
63321;BME280;49449;48.800;9.534;2023-06-10T11:15:23;98167.59;;;26.78;23.46
63321;BME280;49449;48.800;9.534;2023-06-10T11:18:15;98160.16;;;26.75;23.02
63321;BME280;49449;48.800;9.534;2023-06-10T11:20:57;98165.56;;;26.75;23.26
63321;BME280;49449;48.800;9.534;2023-06-10T11:23:39;98171.22;;;26.98;23.43
63321;BME280;49449;48.800;9.534;2023-06-10T11:26:14;98160.72;;;26.97;23.34
63321;BME280;49449;48.800;9.534;2023-06-10T11:29:00;98173.94;;;26.58;23.40
63321;BME280;49449;48.800;9.534;2023-06-10T11:31:30;98170.78;;;26.68;22.77
63321;BME280;49449;48.800;9.534;2023-06-10T11:33:59;98167.66;;;26.54;23.47
63321;BME280;49449;48.800;9.534;2023-06-10T11:36:29;98161.88;;;26.68;23.11
63321;BME280;49449;48.800;9.534;2023-06-10T11:38:59;98167.47;;;26.47;23.27
63321;BME280;49449;48.800;9.534;2023-06-10T11:41:29;98164.94;;;26.54;23.12
63321;BME280;49449;48.800;9.534;2023-06-10T11:44:01;98158.16;;;26.60;23.00
63321;BME280;49449;48.800;9.534;2023-06-10T11:46:29;98172.13;;;26.62;23.43
63321;BME280;49449;48.800;9.534;2023-06-10T11:48:58;98163.19;;;26.74;23.23
63321;BME280;49449;48.800;9.534;2023-06-10T11:51:27;98160.19;;;26.91;22.98
63321;BME280;49449;48.800;9.534;2023-06-10T11:53:55;98158.22;;;26.76;22.70
63321;BME280;49449;48.800;9.534;2023-06-10T11:56:26;98150.91;;;26.76;22.68
63321;BME280;49449;48.800;9.534;2023-06-10T11:58:55;98154.41;;;26.77;22.19
63321;BME280;49449;48.800;9.534;2023-06-10T12:01:25;98151.06;;;26.55;22.22
63321;BME280;49449;48.800;9.534;2023-06-10T12:04:02;98149.50;;;26.42;22.27
63321;BME280;49449;48.800;9.534;2023-06-10T12:06:43;98148.28;;;26.39;22.59
63321;BME280;49449;48.800;9.534;2023-06-10T12:09:14;98147.44;;;26.51;22.44
63321;BME280;49449;48.800;9.534;2023-06-10T12:11:51;98151.69;;;26.77;22.28
63321;BME280;49449;48.800;9.534;2023-06-10T12:14:51;98148.63;;;26.78;22.43
63321;BME280;49449;48.800;9.534;2023-06-10T12:17:22;98143.56;;;26.65;22.48
63321;BME280;49449;48.800;9.534;2023-06-10T12:19:51;98151.69;;;26.65;22.98
63321;BME280;49449;48.800;9.534;2023-06-10T12:22:19;98147.53;;;26.67;22.63
63321;BME280;49449;48.800;9.534;2023-06-10T12:24:57;98135.22;;;26.70;22.51
63321;BME280;49449;48.800;9.534;2023-06-10T12:27:29;98130.63;;;26.86;22.30
63321;BME280;49449;48.800;9.534;2023-06-10T12:29:57;98133.16;;;26.79;21.77
63321;BME280;49449;48.800;9.534;2023-06-10T12:32:35;98130.81;;;26.93;22.59
63321;BME280;49449;48.800;9.534;2023-06-10T12:35:04;98127.44;;;26.96;22.17
63321;BME280;49449;48.800;9.534;2023-06-10T12:37:33;98123.53;;;27.10;22.04
63321;BME280;49449;48.800;9.534;2023-06-10T12:40:01;98123.53;;;27.10;22.35
63321;BME280;49449;48.800;9.534;2023-06-10T12:42:31;98127.53;;;27.00;22.38
63321;BME280;49449;48.800;9.534;2023-06-10T12:45:00;98130.06;;;27.09;22.72
63321;BME280;49449;48.800;9.534;2023-06-10T12:47:32;98128.34;;;27.32;22.73
63321;BME280;49449;48.800;9.534;2023-06-10T12:50:01;98135.44;;;27.37;22.74
63321;BME280;49449;48.800;9.534;2023-06-10T12:52:31;98125.84;;;26.95;22.29
63321;BME280;49449;48.800;9.534;2023-06-10T12:54:59;98134.22;;;26.90;22.59
63321;BME280;49449;48.800;9.534;2023-06-10T12:57:27;98133.03;;;27.04;22.16
63321;BME280;49449;48.800;9.534;2023-06-10T12:59:57;98129.88;;;27.02;22.22
63321;BME280;49449;48.800;9.534;2023-06-10T13:02:30;98119.13;;;27.05;22.42
63321;BME280;49449;48.800;9.534;2023-06-10T13:04:58;98123.69;;;27.17;22.44
63321;BME280;49449;48.800;9.534;2023-06-10T13:07:28;98120.13;;;27.29;21.64
63321;BME280;49449;48.800;9.534;2023-06-10T13:09:57;98119.59;;;27.23;22.15
63321;BME280;49449;48.800;9.534;2023-06-10T13:12:25;98119.91;;;27.06;22.13